Time;durP1;ratioP1;P1;durP2;ratioP2;P2;SDS_P1;SDS_P2;PMS_P1;PMS_P2;Temp;Humidity;BMP_temperature;BMP_pressure;BME280_temperature;BME280_humidity;BME280_pressure;Samples;Min_cycle;Max_cycle;Signal;HPM_P1;HPM_P2
2023/04/20 00:02:15;;;;;;;7.10;2.08;;;;;;;14.36;49.77;99419.47;5036547;28;20029;-74
2023/04/20 00:04:40;;;;;;;6.77;2.00;;;;;;;14.33;50.04;99416.94;5036836;28;20029;-74
2023/04/20 00:07:06;;;;;;;5.82;2.08;;;;;;;14.29;49.76;99408.22;5036655;28;20500;-74
2023/04/20 00:09:31;;;;;;;6.73;2.10;;;;;;;14.27;50.04;99411.84;5036924;28;20041;-74
2023/04/20 00:11:57;;;;;;;7.60;2.20;;;;;;;14.27;50.13;99415.34;5036464;28;20014;-74
2023/04/20 00:14:23;;;;;;;6.03;2.23;;;;;;;14.23;50.12;99415.50;5036653;28;20030;-74
2023/04/20 00:16:48;;;;;;;5.73;2.10;;;;;;;14.11;50.17;99411.50;5036661;28;20033;-74
2023/04/20 00:19:13;;;;;;;8.13;2.30;;;;;;;14.04;50.61;99403.72;5036372;28;20284;-73
2023/04/20 00:21:39;;;;;;;6.00;2.03;;;;;;;14.01;50.67;99390.59;5035120;28;20021;-73
2023/04/20 00:24:06;;;;;;;7.30;2.00;;;;;;;14.01;50.86;99392.38;5036536;28;20044;-73
2023/04/20 00:26:31;;;;;;;9.32;2.20;;;;;;;13.99;50.85;99387.13;5035067;28;20100;-74
2023/04/20 00:28:56;;;;;;;6.23;2.00;;;;;;;13.95;51.05;99392.56;5036239;28;20485;-74
2023/04/20 00:31:22;;;;;;;8.23;2.30;;;;;;;13.91;51.18;99379.44;5030052;28;20105;-73
2023/04/20 00:33:47;;;;;;;5.90;2.00;;;;;;;13.89;51.10;99388.34;5036379;28;20548;-74
2023/04/20 00:36:13;;;;;;;5.90;2.07;;;;;;;13.89;51.07;99385.72;5036110;28;20037;-74
2023/04/20 00:38:38;;;;;;;6.47;2.30;;;;;;;13.87;50.98;99382.25;5036477;28;20029;-73
2023/04/20 00:41:04;;;;;;;7.97;2.47;;;;;;;13.85;51.07;99384.06;5036117;28;20036;-74
2023/04/20 00:43:29;;;;;;;5.30;2.17;;;;;;;13.84;50.90;99379.69;5036156;28;20044;-73
2023/04/20 00:45:55;;;;;;;6.57;1.93;;;;;;;13.77;51.47;99374.59;5036200;28;20040;-74
2023/04/20 00:48:21;;;;;;;5.72;2.20;;;;;;;13.73;51.44;99375.59;5036236;28;20104;-73
2023/04/20 00:50:47;;;;;;;6.73;2.20;;;;;;;13.70;51.54;99375.69;5036071;28;20033;-71
2023/04/20 00:53:13;;;;;;;6.00;2.13;;;;;;;13.67;51.76;99373.16;5039673;28;20021;-71
2023/04/20 00:55:41;;;;;;;9.60;2.00;;;;;;;13.66;51.72;99368.78;5039872;28;20160;-71
2023/04/20 00:58:06;;;;;;;6.22;2.35;;;;;;;13.61;51.83;99365.38;5039745;28;20032;-71
2023/04/20 01:00:32;;;;;;;6.73;1.90;;;;;;;13.59;51.98;99367.22;5039410;28;20025;-71
2023/04/20 01:02:58;;;;;;;5.75;2.13;;;;;;;13.55;51.86;99361.19;5039997;28;20026;-71
2023/04/20 01:05:24;;;;;;;7.93;2.30;;;;;;;13.56;52.06;99359.38;5039525;28;20040;-73
2023/04/20 01:07:49;;;;;;;7.13;2.42;;;;;;;13.52;52.18;99361.28;5039646;28;20088;-73
2023/04/20 01:10:15;;;;;;;7.30;2.20;;;;;;;13.51;52.08;99358.66;5039553;28;20514;-73
2023/04/20 01:12:41;;;;;;;8.02;2.47;;;;;;;13.48;52.23;99354.31;5049597;28;20048;-73
2023/04/20 01:15:07;;;;;;;7.47;2.07;;;;;;;13.45;52.22;99349.13;5042144;28;20147;-73
2023/04/20 01:17:33;;;;;;;11.38;2.63;;;;;;;13.40;52.40;99346.63;5039588;28;20097;-74
2023/04/20 01:19:59;;;;;;;8.25;2.30;;;;;;;13.38;52.43;99343.13;5039170;28;20425;-73
2023/04/20 01:22:24;;;;;;;5.90;2.20;;;;;;;13.33;52.78;99342.41;5039300;28;20033;-73
2023/04/20 01:24:50;;;;;;;5.65;2.22;;;;;;;13.32;52.40;99340.69;5039240;28;20025;-74
2023/04/20 01:27:16;;;;;;;6.13;2.10;;;;;;;13.30;52.59;99339.84;5039384;28;20038;-73
2023/04/20 01:29:42;;;;;;;9.23;2.25;;;;;;;13.26;52.74;99343.50;5039070;28;20470;-73
2023/04/20 01:32:07;;;;;;;5.53;2.13;;;;;;;13.21;53.00;99341.88;5033043;28;20398;-73
2023/04/20 01:34:33;;;;;;;7.65;2.38;;;;;;;13.16;53.12;99338.50;5038872;28;20033;-73
2023/04/20 01:36:58;;;;;;;5.90;2.20;;;;;;;13.13;53.05;99335.94;5039081;28;20040;-73
2023/04/20 01:39:24;;;;;;;6.57;2.17;;;;;;;13.11;52.85;99339.56;5038632;28;20030;-73
2023/04/20 01:41:50;;;;;;;5.68;1.88;;;;;;;13.08;53.21;99335.22;5039102;28;20033;-73
2023/04/20 01:44:15;;;;;;;6.43;2.03;;;;;;;13.04;53.11;99328.28;5038839;28;20065;-73
2023/04/20 01:46:41;;;;;;;6.10;2.20;;;;;;;13.02;52.90;99331.00;5037538;28;20519;-73
2023/04/20 01:49:07;;;;;;;5.73;2.00;;;;;;;13.00;53.07;99331.94;5038566;28;20422;-73
2023/04/20 01:51:33;;;;;;;6.22;2.30;;;;;;;12.96;53.21;99330.31;5038924;28;20061;-73
2023/04/20 01:53:59;;;;;;;8.23;2.23;;;;;;;12.92;53.12;99319.81;5038657;28;20156;-71
2023/04/20 01:56:25;;;;;;;7.28;2.40;;;;;;;12.85;53.31;99322.69;5038646;28;20083;-71
2023/04/20 01:58:50;;;;;;;7.45;2.60;;;;;;;12.79;53.27;99313.16;5037259;28;20037;-71
2023/04/20 02:01:16;;;;;;;7.60;2.80;;;;;;;12.72;53.38;99307.16;5038544;28;20504;-71
2023/04/20 02:03:41;;;;;;;6.00;2.53;;;;;;;12.64;53.73;99307.38;5037574;28;20037;-71
2023/04/20 02:06:07;;;;;;;6.43;2.33;;;;;;;12.59;54.12;99309.28;5038784;28;20436;-71
2023/04/20 02:08:33;;;;;;;6.68;2.53;;;;;;;12.54;54.18;99313.84;5038443;28;20037;-71
2023/04/20 02:10:58;;;;;;;6.77;2.67;;;;;;;12.50;54.45;99309.56;5037345;28;20060;-70
2023/04/20 02:13:23;;;;;;;6.27;2.20;;;;;;;12.43;54.73;99306.19;5038761;28;20279;-71
2023/04/20 02:15:49;;;;;;;7.07;2.70;;;;;;;12.41;54.28;99301.88;5036982;28;20041;-70
2023/04/20 02:18:15;;;;;;;6.37;2.30;;;;;;;12.39;54.80;99298.41;5038075;28;20025;-71
2023/04/20 02:20:41;;;;;;;7.10;2.50;;;;;;;12.35;54.72;99295.84;5038336;28;20049;-70
2023/04/20 02:23:07;;;;;;;5.30;2.10;;;;;;;12.34;54.86;99296.75;5036705;28;20040;-71
2023/04/20 02:25:32;;;;;;;7.83;2.60;;;;;;;12.35;54.76;99293.22;5038062;28;20489;-70
2023/04/20 02:27:57;;;;;;;7.50;2.60;;;;;;;12.35;54.44;99293.22;5038114;28;20393;-70
2023/04/20 02:30:23;;;;;;;7.70;2.60;;;;;;;12.34;54.48;99293.25;5035839;28;20033;-71
2023/04/20 02:32:48;;;;;;;7.37;2.73;;;;;;;12.30;54.61;99287.19;5033542;28;20029;-71
2023/04/20 02:35:13;;;;;;;5.38;2.60;;;;;;;12.29;54.85;99290.75;5037619;28;20080;-70
2023/04/20 02:37:39;;;;;;;7.57;2.70;;;;;;;12.24;55.27;99295.28;5037795;28;20108;-70
2023/04/20 02:40:06;;;;;;;8.13;2.57;;;;;;;12.24;55.14;99299.69;5037767;28;20029;-70
2023/04/20 02:42:31;;;;;;;6.45;2.47;;;;;;;12.21;54.89;99295.38;5037502;28;20033;-71
2023/04/20 02:44:57;;;;;;;6.53;2.43;;;;;;;12.17;55.29;99297.22;5037780;28;20844;-71
2023/04/20 02:47:22;;;;;;;6.00;2.50;;;;;;;12.12;55.32;99296.47;5037640;28;20112;-70
2023/04/20 02:49:47;;;;;;;8.20;3.20;;;;;;;12.09;55.28;99306.22;5037410;28;20033;-71
2023/04/20 02:52:13;;;;;;;9.20;2.87;;;;;;;12.04;55.35;99287.88;5037595;28;20065;-70
2023/04/20 02:54:39;;;;;;;5.90;2.42;;;;;;;11.95;55.43;99302.16;5037774;28;20025;-70
2023/04/20 02:57:04;;;;;;;7.03;2.60;;;;;;;11.86;55.49;99297.97;5037327;28;20067;-70
2023/04/20 02:59:30;;;;;;;7.40;2.37;;;;;;;11.81;55.69;99296.34;5037507;28;20026;-70
2023/04/20 03:01:55;;;;;;;6.45;2.20;;;;;;;11.74;56.19;99296.50;5037184;28;20053;-70
2023/04/20 03:04:21;;;;;;;11.70;2.20;;;;;;;11.69;56.13;99293.09;5037130;28;20033;-71
2023/04/20 03:06:48;;;;;;;7.27;2.47;;;;;;;11.65;56.18;99291.44;5037263;28;20029;-70
2023/04/20 03:09:14;;;;;;;6.95;2.63;;;;;;;11.64;56.33;99289.72;5037378;28;20037;-70
2023/04/20 03:11:40;;;;;;;6.20;2.20;;;;;;;11.63;56.10;99291.50;5037587;28;20033;-70
2023/04/20 03:14:05;;;;;;;7.57;2.43;;;;;;;11.65;56.25;99291.44;5036934;28;20064;-70
2023/04/20 03:16:31;;;;;;;6.03;2.50;;;;;;;11.67;55.77;99288.78;5036485;28;20481;-70
2023/04/20 03:18:56;;;;;;;6.37;2.70;;;;;;;11.63;56.09;99282.69;5036947;28;20053;-70
2023/04/20 03:21:21;;;;;;;6.97;2.73;;;;;;;11.52;56.13;99288.22;5037041;28;20033;-71
2023/04/20 03:23:47;;;;;;;7.37;2.60;;;;;;;11.45;55.91;99278.75;5037192;28;20275;-72
2023/04/20 03:26:12;;;;;;;5.77;2.57;;;;;;;11.41;56.34;99285.84;5037062;28;20033;-71
2023/04/20 03:28:37;;;;;;;9.37;2.80;;;;;;;11.39;56.34;99285.03;5037149;28;20397;-72
2023/04/20 03:31:05;;;;;;;8.37;2.60;;;;;;;11.39;55.93;99279.75;5034972;28;20632;-71
2023/04/20 03:33:31;;;;;;;5.78;2.53;;;;;;;11.37;56.21;99281.56;5037096;28;20478;-71
2023/04/20 03:35:56;;;;;;;8.90;2.95;;;;;;;11.33;56.63;99287.81;5036968;28;20052;-71
2023/04/20 03:38:22;;;;;;;7.20;2.60;;;;;;;11.29;56.41;99291.41;5036671;28;20482;-71
2023/04/20 03:40:47;;;;;;;10.77;2.80;;;;;;;11.27;56.97;99282.69;5036796;28;20037;-71
2023/04/20 03:43:12;;;;;;;7.63;2.80;;;;;;;11.25;56.76;99287.13;5035627;28;20155;-71
2023/04/20 03:45:38;;;;;;;9.15;2.70;;;;;;;11.24;56.52;99288.03;5036668;28;20086;-72
2023/04/20 03:48:04;;;;;;;7.73;2.70;;;;;;;11.23;56.68;99292.41;5036868;28;20486;-71
2023/04/20 03:50:29;;;;;;;6.40;2.93;;;;;;;11.19;57.21;99285.47;5035315;28;20056;-71
2023/04/20 03:52:54;;;;;;;8.02;2.63;;;;;;;11.17;57.22;99282.03;5036927;28;20028;-71
2023/04/20 03:55:20;;;;;;;9.03;2.93;;;;;;;11.11;57.26;99280.38;5035543;28;20115;-71
2023/04/20 03:57:45;;;;;;;7.23;2.67;;;;;;;11.08;57.40;99279.56;5036660;28;20035;-72
2023/04/20 04:00:11;;;;;;;8.30;2.90;;;;;;;11.05;57.27;99277.88;5035149;28;20061;-71
2023/04/20 04:02:37;;;;;;;7.15;2.80;;;;;;;10.98;57.19;99279.78;5036734;28;20025;-72
2023/04/20 04:05:02;;;;;;;5.93;2.90;;;;;;;10.89;57.27;99290.53;5036692;28;20408;-72
2023/04/20 04:07:28;;;;;;;6.40;2.75;;;;;;;10.86;57.87;99291.44;5036829;28;20036;-71
2023/04/20 04:09:53;;;;;;;7.67;3.07;;;;;;;10.86;57.18;99291.44;5036638;28;20146;-71
2023/04/20 04:12:19;;;;;;;6.07;2.60;;;;;;;10.86;57.35;99295.88;5037166;28;20026;-71
2023/04/20 04:14:44;;;;;;;8.30;2.57;;;;;;;10.84;57.35;99293.25;5036716;28;20025;-71
2023/04/20 04:17:09;;;;;;;7.78;3.08;;;;;;;10.77;57.55;99284.59;5036668;28;20112;-71
2023/04/20 04:19:35;;;;;;;10.33;2.90;;;;;;;10.75;57.59;99283.78;5036254;28;20050;-71
2023/04/20 04:22:00;;;;;;;7.90;2.97;;;;;;;10.74;57.60;99289.09;5036468;28;20021;-71
2023/04/20 04:24:25;;;;;;;5.80;2.60;;;;;;;10.70;58.00;99292.66;5036172;28;20025;-71
2023/04/20 04:26:55;;;;;;;7.80;2.60;;;;;;;10.67;57.92;99295.34;5038166;28;20101;-71
2023/04/20 04:29:21;;;;;;;10.03;3.40;;;;;;;10.66;57.72;99291.88;5040386;28;20256;-71
2023/04/20 04:31:46;;;;;;;6.53;2.83;;;;;;;10.63;58.09;99289.31;5034005;28;20024;-71
2023/04/20 04:34:12;;;;;;;10.67;3.33;;;;;;;10.57;57.93;99285.03;5039979;28;20025;-71
2023/04/20 04:36:38;;;;;;;8.68;3.13;;;;;;;10.56;57.94;99300.81;5040342;28;20028;-71
2023/04/20 04:39:03;;;;;;;6.73;3.03;;;;;;;10.50;58.33;99291.31;5040082;28;20034;-71
2023/04/20 04:41:29;;;;;;;11.30;3.10;;;;;;;10.48;57.96;99290.44;5038721;28;20021;-71
2023/04/20 04:43:54;;;;;;;7.43;2.88;;;;;;;10.46;57.75;99294.88;5040365;28;20053;-71
2023/04/20 04:46:20;;;;;;;9.23;2.90;;;;;;;10.44;57.90;99294.91;5039604;28;20064;-71
2023/04/20 04:48:45;;;;;;;9.98;3.58;;;;;;;10.41;57.97;99296.72;5039650;28;20029;-71
2023/04/20 04:51:11;;;;;;;8.97;2.97;;;;;;;10.37;57.87;99302.91;5040108;28;20448;-71
2023/04/20 04:53:37;;;;;;;9.65;3.05;;;;;;;10.36;58.06;99299.41;5038605;28;20104;-71
2023/04/20 04:56:03;;;;;;;8.03;3.00;;;;;;;10.31;58.59;99299.53;5039802;28;20075;-71
2023/04/20 04:58:28;;;;;;;7.95;2.80;;;;;;;10.26;58.67;99304.00;5039740;28;20025;-71
2023/04/20 05:00:54;;;;;;;8.13;2.80;;;;;;;10.23;58.47;99297.91;5039478;28;20029;-72
2023/04/20 05:03:19;;;;;;;9.60;3.40;;;;;;;10.23;58.46;99301.41;5039501;28;20057;-72
2023/04/20 05:05:45;;;;;;;7.60;2.90;;;;;;;10.22;58.62;99299.66;5039574;28;20029;-71
2023/04/20 05:08:11;;;;;;;10.63;2.83;;;;;;;10.22;58.30;99294.41;5039768;28;20029;-72
2023/04/20 05:10:36;;;;;;;7.47;2.90;;;;;;;10.22;58.64;99304.94;5039413;28;20025;-71
2023/04/20 05:13:02;;;;;;;7.78;3.25;;;;;;;10.22;58.90;99304.06;5039576;28;20020;-72
2023/04/20 05:15:27;;;;;;;8.50;3.23;;;;;;;10.23;58.35;99300.56;5039169;28;20075;-72
2023/04/20 05:17:52;;;;;;;8.73;3.10;;;;;;;10.20;58.75;99301.47;5039262;28;20079;-72
2023/04/20 05:20:19;;;;;;;8.10;3.10;;;;;;;10.20;58.63;99310.25;5038776;28;20045;-72
2023/04/20 05:22:45;;;;;;;7.80;3.33;;;;;;;10.20;58.35;99307.59;5039154;28;20026;-72
2023/04/20 05:25:10;;;;;;;9.82;3.65;;;;;;;10.22;58.42;99306.72;5038384;28;20440;-72
2023/04/20 05:27:36;;;;;;;10.80;3.17;;;;;;;10.18;58.67;99308.53;5039424;28;20120;-72
2023/04/20 05:30:02;;;;;;;7.67;3.00;;;;;;;10.23;58.82;99311.06;5037272;28;20105;-72
2023/04/20 05:32:27;;;;;;;7.85;3.35;;;;;;;10.38;58.09;99317.81;5026480;28;20505;-72
2023/04/20 05:34:52;;;;;;;10.57;3.30;;;;;;;10.41;58.14;99317.78;5031098;28;20044;-72
2023/04/20 05:37:18;;;;;;;9.30;3.50;;;;;;;10.45;58.15;99311.56;5030869;28;20075;-73
2023/04/20 05:39:43;;;;;;;7.13;3.30;;;;;;;10.46;57.68;99313.31;5037863;28;20030;-73
2023/04/20 05:42:09;;;;;;;8.00;3.10;;;;;;;10.54;57.59;99305.25;5038481;28;20026;-73
2023/04/20 05:44:35;;;;;;;11.33;3.40;;;;;;;10.55;57.36;99307.88;5038482;28;20496;-73
2023/04/20 05:47:01;;;;;;;9.95;3.60;;;;;;;10.55;58.09;99307.00;5038709;28;20116;-74
2023/04/20 05:49:26;;;;;;;11.63;3.40;;;;;;;10.62;57.87;99303.38;5036293;28;20028;-72
2023/04/20 05:51:52;;;;;;;10.73;3.23;;;;;;;10.70;58.09;99311.09;5038024;28;20474;-73
2023/04/20 05:54:17;;;;;;;9.10;3.63;;;;;;;10.88;57.64;99315.97;5037161;28;20017;-73
2023/04/20 05:56:43;;;;;;;9.97;3.67;;;;;;;11.20;57.33;99311.78;5024906;28;20033;-73
2023/04/20 05:59:08;;;;;;;8.70;3.50;;;;;;;11.51;56.06;99307.59;5025490;28;20037;-73
2023/04/20 06:01:34;;;;;;;7.90;3.27;;;;;;;11.84;55.44;99309.47;5037804;28;20022;-74
2023/04/20 06:03:59;;;;;;;7.38;3.65;;;;;;;12.05;55.32;99311.59;5032694;28;20053;-72
2023/04/20 06:06:25;;;;;;;11.20;3.97;;;;;;;12.02;55.43;99309.03;5030556;28;20476;-72
2023/04/20 06:08:51;;;;;;;11.70;4.03;;;;;;;12.06;55.78;99308.03;5036005;28;20056;-72
2023/04/20 06:11:16;;;;;;;9.68;3.58;;;;;;;12.28;55.47;99309.25;5037115;28;20017;-73
2023/04/20 06:13:42;;;;;;;9.03;3.90;;;;;;;12.53;54.95;99306.81;5038478;28;20022;-73
2023/04/20 06:16:09;;;;;;;10.17;4.10;;;;;;;12.77;54.90;99301.75;5034778;28;20029;-72
2023/04/20 06:18:36;;;;;;;10.48;4.25;;;;;;;12.98;54.15;99299.41;5034324;28;20100;-73
2023/04/20 06:21:02;;;;;;;10.77;3.88;;;;;;;13.09;54.26;99305.22;5035922;28;20049;-73
2023/04/20 06:23:27;;;;;;;9.73;4.82;;;;;;;13.07;54.78;99307.06;5035881;28;20405;-72
2023/04/20 06:25:53;;;;;;;9.13;4.07;;;;;;;12.91;55.47;99307.53;5034692;28;20045;-73
2023/04/20 06:28:18;;;;;;;11.10;3.90;;;;;;;12.80;56.00;99304.31;5036781;28;20030;-73
2023/04/20 06:30:44;;;;;;;10.00;4.33;;;;;;;12.78;56.44;99301.72;5036895;28;20053;-73
2023/04/20 06:33:12;;;;;;;11.70;4.33;;;;;;;12.82;56.63;99297.19;5037293;28;20032;-72
2023/04/20 06:35:38;;;;;;;10.35;3.70;;;;;;;12.83;56.55;99301.56;5036753;28;20041;-73
2023/04/20 06:38:04;;;;;;;9.73;4.30;;;;;;;12.85;56.71;99302.41;5037532;28;20504;-72
2023/04/20 06:40:29;;;;;;;10.67;4.60;;;;;;;12.90;57.57;99305.78;5037541;28;20060;-71
2023/04/20 06:42:55;;;;;;;9.17;4.30;;;;;;;12.91;57.60;99302.25;5037190;28;20052;-71
2023/04/20 06:45:21;;;;;;;10.15;4.20;;;;;;;12.97;57.14;99298.53;5037928;28;20033;-71
2023/04/20 06:47:46;;;;;;;14.07;4.30;;;;;;;12.99;57.17;99293.22;5037005;28;20083;-74
2023/04/20 06:50:12;;;;;;;9.55;4.38;;;;;;;13.01;57.36;99294.88;5036803;28;21054;-73
2023/04/20 06:52:38;;;;;;;12.20;4.63;;;;;;;13.16;57.20;99300.63;5037573;28;20034;-73
2023/04/20 06:55:04;;;;;;;9.82;4.45;;;;;;;13.24;56.88;99292.47;5037560;28;20040;-72
2023/04/20 06:57:30;;;;;;;11.83;4.27;;;;;;;13.32;56.76;99291.31;5037270;28;20034;-73
2023/04/20 06:59:55;;;;;;;8.57;4.07;;;;;;;13.35;56.56;99293.88;5037213;28;20030;-72
2023/04/20 07:02:20;;;;;;;10.33;4.53;;;;;;;13.30;56.95;99292.25;5035761;28;20288;-72
2023/04/20 07:04:46;;;;;;;8.97;4.10;;;;;;;13.31;56.91;99294.00;5037450;28;20048;-73
2023/04/20 07:07:11;;;;;;;10.30;4.03;;;;;;;13.36;56.85;99281.50;5036098;28;20036;-73
2023/04/20 07:09:37;;;;;;;12.67;3.67;;;;;;;13.49;57.02;99282.88;5037296;28;20025;-71
2023/04/20 07:12:02;;;;;;;7.40;3.60;;;;;;;13.70;56.29;99275.16;5040529;28;20351;-73
2023/04/20 07:14:28;;;;;;;9.87;4.10;;;;;;;13.94;55.98;99275.25;5045112;28;20029;-72
2023/04/20 07:16:54;;;;;;;10.70;4.07;;;;;;;14.16;55.85;99272.72;5036941;28;20408;-72
2023/04/20 07:19:20;;;;;;;7.82;3.72;;;;;;;14.31;55.39;99276.63;5037007;28;20107;-73
2023/04/20 07:21:45;;;;;;;9.03;3.73;;;;;;;14.49;55.07;99269.81;5035722;28;20034;-74
2023/04/20 07:24:11;;;;;;;8.32;3.35;;;;;;;14.67;54.66;99271.84;5036246;28;20543;-73
2023/04/20 07:26:36;;;;;;;7.13;3.30;;;;;;;14.86;54.32;99264.97;5036945;28;20088;-73
2023/04/20 07:29:02;;;;;;;8.13;3.37;;;;;;;15.07;53.97;99265.91;5037219;28;20101;-73
2023/04/20 07:31:27;;;;;;;9.00;3.55;;;;;;;15.32;53.46;99264.09;5031332;28;20033;-73
2023/04/20 07:33:53;;;;;;;12.50;4.03;;;;;;;15.47;52.93;99262.63;5036825;28;20025;-73
2023/04/20 07:36:20;;;;;;;7.43;3.03;;;;;;;15.56;52.74;99259.56;5036704;28;20029;-72
2023/04/20 07:38:46;;;;;;;8.90;3.63;;;;;;;15.70;52.54;99269.63;5036904;28;20474;-73
2023/04/20 07:41:11;;;;;;;10.10;3.47;;;;;;;15.87;52.57;99254.78;5036789;28;20098;-73
2023/04/20 07:43:37;;;;;;;8.23;3.83;;;;;;;15.92;52.03;99252.81;5036989;28;20550;-73
2023/04/20 07:46:03;;;;;;;7.47;3.53;;;;;;;16.01;51.90;99247.13;5035436;28;20264;-74
2023/04/20 07:48:28;;;;;;;9.38;3.35;;;;;;;16.12;51.81;99248.47;5035418;28;20032;-73
2023/04/20 07:50:54;;;;;;;10.37;3.60;;;;;;;16.40;51.74;99252.56;5036878;28;20136;-73
2023/04/20 07:53:19;;;;;;;8.63;3.30;;;;;;;16.66;50.77;99246.06;5037045;28;20397;-73
2023/04/20 07:55:45;;;;;;;7.30;3.30;;;;;;;16.96;50.56;99239.38;5036683;28;20036;-73
2023/04/20 07:58:11;;;;;;;7.40;3.20;;;;;;;17.31;49.71;99242.19;5035451;28;20037;-73
2023/04/20 08:00:36;;;;;;;8.60;3.67;;;;;;;17.74;49.16;99247.19;5036448;28;20029;-74
2023/04/20 08:03:02;;;;;;;9.05;3.60;;;;;;;17.99;48.02;99236.19;5040240;28;20512;-73
2023/04/20 08:05:27;;;;;;;9.37;3.80;;;;;;;18.04;48.21;99234.16;5039456;28;20033;-73
2023/04/20 08:07:53;;;;;;;9.93;3.50;;;;;;;18.23;47.63;99241.19;5041071;28;20025;-73
2023/04/20 08:10:18;;;;;;;8.70;3.23;;;;;;;18.43;47.26;99233.94;5040714;28;20110;-74
2023/04/20 08:12:43;;;;;;;11.73;4.20;;;;;;;18.55;47.29;99233.28;5040800;28;20268;-73
2023/04/20 08:15:09;;;;;;;10.50;3.27;;;;;;;18.70;47.04;99236.94;5040481;28;20029;-71
2023/04/20 08:17:35;;;;;;;11.57;4.22;;;;;;;18.88;46.40;99234.19;5039359;28;20056;-71
2023/04/20 08:20:00;;;;;;;8.40;3.23;;;;;;;18.99;46.31;99229.16;5040183;28;20112;-71
2023/04/20 08:22:28;;;;;;;10.43;4.10;;;;;;;19.12;46.30;99237.31;5040372;28;20037;-71
2023/04/20 08:24:56;;;;;;;14.15;4.10;;;;;;;19.17;46.20;99232.63;5040470;28;20021;-71
2023/04/20 08:27:21;;;;;;;11.52;4.30;;;;;;;19.25;46.31;99236.66;5040489;28;20039;-71
2023/04/20 08:29:46;;;;;;;7.90;3.67;;;;;;;19.35;46.29;99241.38;5040243;28;20112;-71
2023/04/20 08:32:12;;;;;;;12.17;3.83;;;;;;;19.35;46.34;99237.84;5033806;28;20022;-71
2023/04/20 08:34:38;;;;;;;10.80;4.53;;;;;;;19.49;45.94;99227.22;5040012;28;20032;-71
2023/04/20 08:37:04;;;;;;;9.87;4.10;;;;;;;19.69;46.08;99227.88;5040105;28;20044;-71
2023/04/20 08:39:29;;;;;;;9.57;4.17;;;;;;;19.90;45.41;99216.88;5040068;28;20260;-72
2023/04/20 08:41:56;;;;;;;11.70;3.50;;;;;;;20.01;45.14;99225.13;5040440;28;20382;-72
2023/04/20 08:44:22;;;;;;;9.63;3.37;;;;;;;20.12;44.88;99226.28;5039916;28;20037;-72
2023/04/20 08:46:48;;;;;;;8.10;3.08;;;;;;;20.05;45.18;99224.00;5040103;28;20379;-72
2023/04/20 08:49:15;;;;;;;10.20;3.50;;;;;;;20.17;45.05;99219.72;5039740;28;20037;-72
2023/04/20 08:51:42;;;;;;;10.00;3.08;;;;;;;20.26;45.05;99220.97;5039882;28;20028;-72
2023/04/20 08:54:10;;;;;;;8.48;2.88;;;;;;;20.39;44.64;99217.56;5038550;28;20125;-73
2023/04/20 08:56:37;;;;;;;8.50;2.83;;;;;;;20.59;44.59;99216.31;5039949;28;20037;-72
2023/04/20 08:59:08;;;;;;;9.43;3.15;;;;;;;20.74;44.22;99214.47;5039726;28;20092;-73
2023/04/20 09:01:35;;;;;;;9.13;2.97;;;;;;;20.86;44.37;99216.41;5039490;28;20036;-72
2023/04/20 09:04:01;;;;;;;7.35;2.80;;;;;;;20.92;44.01;99212.47;5039676;28;20040;-73
2023/04/20 09:06:27;;;;;;;6.75;2.80;;;;;;;21.02;43.64;99210.06;5038321;28;20099;-72
2023/04/20 09:08:53;;;;;;;7.37;2.90;;;;;;;21.17;43.20;99203.72;5039427;28;20029;-73
2023/04/20 09:11:28;;;;;;;5.70;2.53;;;;;;;21.40;43.59;99204.03;5038498;28;20025;-73
2023/04/20 09:14:05;;;;;;;7.23;2.70;;;;;;;21.65;42.89;99207.78;5039091;28;20113;-72
2023/04/20 09:16:33;;;;;;;7.15;2.63;;;;;;;21.98;42.70;99201.06;5039511;28;20029;-73
2023/04/20 09:18:59;;;;;;;8.15;2.50;;;;;;;22.20;42.13;99203.13;5039396;28;20418;-73
2023/04/20 09:21:27;;;;;;;7.50;2.25;;;;;;;22.31;41.89;99197.00;5039547;28;20029;-73
2023/04/20 09:24:00;;;;;;;10.10;2.60;;;;;;;22.39;41.56;99196.44;5039403;28;20060;-73
2023/04/20 09:26:26;;;;;;;7.57;2.72;;;;;;;22.29;41.79;99190.88;5039103;28;20436;-73
2023/04/20 09:28:52;;;;;;;7.68;2.78;;;;;;;22.44;41.47;99196.13;5038076;28;20033;-73
2023/04/20 09:31:20;;;;;;;9.57;3.10;;;;;;;22.56;41.03;99192.63;5032620;28;20037;-73
2023/04/20 09:33:58;;;;;;;6.97;2.45;;;;;;;22.69;40.59;99197.09;5037984;28;20132;-73
2023/04/20 09:36:33;;;;;;;6.63;2.72;;;;;;;22.89;40.79;99193.81;5039051;28;20037;-73
2023/04/20 09:39:19;;;;;;;8.75;3.08;;;;;;;22.98;39.99;99196.78;5038908;28;20025;-73
2023/04/20 09:41:46;;;;;;;6.70;2.55;;;;;;;23.19;39.77;99197.91;5028241;28;20029;-73
2023/04/20 09:44:12;;;;;;;11.57;2.60;;;;;;;23.38;39.53;99193.88;5039221;28;20108;-73
2023/04/20 09:46:40;;;;;;;7.63;2.45;;;;;;;23.57;38.87;99187.97;5039071;28;20033;-73
2023/04/20 09:49:08;;;;;;;10.98;2.70;;;;;;;23.79;38.87;99187.22;5038685;28;20061;-73
2023/04/20 09:51:40;;;;;;;10.00;2.67;;;;;;;23.96;38.58;99192.25;5039063;28;20504;-73
2023/04/20 09:54:07;;;;;;;8.65;3.08;;;;;;;24.19;38.12;99182.41;5038881;28;20041;-73
2023/04/20 09:56:34;;;;;;;7.27;2.57;;;;;;;24.33;37.64;99176.81;5037506;28;20116;-73
2023/04/20 09:59:00;;;;;;;8.73;2.60;;;;;;;24.48;36.86;99171.19;5038661;28;20057;-73
2023/04/20 10:01:30;;;;;;;9.10;2.55;;;;;;;24.58;36.74;99164.09;5038487;28;20033;-73
2023/04/20 10:03:56;;;;;;;7.60;2.60;;;;;;;24.63;36.51;99164.56;5038461;28;20025;-73
2023/04/20 10:06:23;;;;;;;7.00;2.47;;;;;;;24.72;35.85;99168.34;5038312;28;20049;-73
2023/04/20 10:08:50;;;;;;;9.53;2.67;;;;;;;24.79;35.46;99152.59;5038511;28;20021;-73
2023/04/20 10:11:44;;;;;;;7.47;2.38;;;;;;;24.89;34.82;99150.84;5038734;28;20041;-74
2023/04/20 10:14:18;;;;;;;6.53;2.22;;;;;;;25.05;33.30;99153.13;5027527;28;20068;-73
2023/04/20 10:16:45;;;;;;;8.68;2.50;;;;;;;25.31;33.39;99143.88;5038408;28;20060;-73
2023/04/20 10:19:11;;;;;;;11.00;2.95;;;;;;;25.35;33.30;99142.63;5038126;28;20497;-74
2023/04/20 10:21:48;;;;;;;7.47;2.30;;;;;;;25.31;33.41;99133.09;5038293;28;20029;-74
2023/04/20 10:24:14;;;;;;;6.50;2.15;;;;;;;25.50;32.55;99125.19;5037592;28;20048;-74
2023/04/20 10:26:43;;;;;;;6.70;1.98;;;;;;;25.57;32.89;99130.06;5036887;28;20032;-73
2023/04/20 10:29:10;;;;;;;6.63;2.10;;;;;;;25.71;32.90;99123.47;5038487;28;20029;-74
2023/04/20 10:31:39;;;;;;;8.77;2.22;;;;;;;25.84;32.19;99124.13;5031781;28;20032;-73
2023/04/20 10:34:06;;;;;;;6.10;2.00;;;;;;;25.77;31.89;99123.81;5036679;28;20037;-74
2023/04/20 10:36:36;;;;;;;8.07;2.10;;;;;;;25.93;31.28;99117.94;5037982;28;20052;-73
2023/04/20 10:39:21;;;;;;;5.45;1.35;;;;;;;26.01;29.34;99117.28;5038113;28;20100;-73
2023/04/20 10:41:54;;;;;;;4.18;1.40;;;;;;;26.20;28.79;99121.09;5027420;28;20057;-74
2023/04/20 10:44:21;;;;;;;6.75;1.38;;;;;;;26.20;28.04;99123.78;5037756;28;20168;-74
2023/04/20 10:46:50;;;;;;;4.80;1.60;;;;;;;26.11;28.17;99117.31;5038001;28;20088;-74
2023/04/20 10:49:17;;;;;;;5.97;1.80;;;;;;;26.09;28.25;99114.75;5037628;28;20025;-74
2023/04/20 10:51:49;;;;;;;5.60;1.95;;;;;;;26.13;28.42;99112.66;5037838;28;20036;-73
2023/04/20 10:54:15;;;;;;;6.30;1.63;;;;;;;26.35;29.03;99106.22;5037675;28;20030;-74
2023/04/20 10:56:44;;;;;;;6.23;1.40;;;;;;;26.50;28.43;99100.44;5037778;28;20037;-74
2023/04/20 10:59:20;;;;;;;6.47;1.60;;;;;;;26.60;28.79;99092.38;5037774;28;20025;-73
2023/04/20 11:01:47;;;;;;;5.07;1.58;;;;;;;26.89;28.73;99091.59;5030931;28;20037;-74
2023/04/20 11:04:12;;;;;;;5.63;1.70;;;;;;;27.06;28.31;99095.44;5037329;28;20482;-74
2023/04/20 11:06:39;;;;;;;5.40;1.83;;;;;;;27.16;26.81;99093.63;5037562;28;20029;-74
2023/04/20 11:09:18;;;;;;;4.90;1.60;;;;;;;27.02;27.39;99094.91;5037744;28;20048;-73
2023/04/20 11:11:44;;;;;;;6.47;1.70;;;;;;;27.00;26.73;99090.63;5039501;28;20473;-74
2023/04/20 11:14:11;;;;;;;4.47;1.53;;;;;;;27.02;26.80;99086.78;5048332;28;20048;-74
2023/04/20 11:16:37;;;;;;;4.57;1.80;;;;;;;27.16;26.95;99080.09;5037292;28;20037;-73
2023/04/20 11:19:04;;;;;;;4.38;1.83;;;;;;;27.17;26.59;99084.50;5037142;28;20505;-74
2023/04/20 11:21:37;;;;;;;6.03;1.70;;;;;;;27.23;26.55;99073.13;5037138;28;20087;-74
2023/04/20 11:24:05;;;;;;;6.93;2.00;;;;;;;27.34;26.30;99079.38;5037304;28;20035;-74
2023/04/20 11:26:37;;;;;;;4.63;1.90;;;;;;;27.43;26.97;99066.84;5036967;28;20025;-74
2023/04/20 11:29:03;;;;;;;5.00;1.80;;;;;;;27.59;27.33;99068.97;5035905;28;20025;-74